Time;durP1;ratioP1;P1;durP2;ratioP2;P2;SDS_P1;SDS_P2;PMS_P1;PMS_P2;Temp;Humidity;BMP_temperature;BMP_pressure;BME280_temperature;BME280_humidity;BME280_pressure;Samples;Min_cycle;Max_cycle;Signal;HPM_P1;HPM_P2
2022/04/07 07:39:54;;;;;;;29.98;11.10;;;;;;;21.34;40.05;99388.56;1870645;76;23091;-59
2022/04/07 07:42:23;;;;;;;25.93;10.40;;;;;;;21.40;39.72;99393.25;1793674;76;409041;-59
2022/04/07 07:44:50;;;;;;;18.48;9.83;;;;;;;21.54;39.23;99395.01;1743367;80;21476;-59
2022/04/07 07:47:16;;;;;;;20.48;13.32;;;;;;;21.66;38.76;99388.56;1743912;81;21193;-58
2022/04/07 07:49:42;;;;;;;31.00;12.78;;;;;;;21.76;38.37;99388.03;1744930;81;20962;-60
2022/04/07 07:52:08;;;;;;;32.83;12.45;;;;;;;21.83;38.20;99393.72;1752285;80;20900;-59
2022/04/07 07:55:45;;;;;;;33.43;12.97;;;;;;;21.95;38.66;99386.72;1716729;79;112251;-59
2022/04/07 07:58:11;;;;;;;33.83;11.73;;;;;;;22.09;39.42;99384.86;1696786;83;20920;-59
2022/04/07 08:00:38;;;;;;;23.95;10.28;;;;;;;22.10;38.91;99375.39;1689603;83;21280;-59
2022/04/07 08:03:04;;;;;;;26.10;9.30;;;;;;;22.09;38.51;99371.81;1701997;82;21318;-60
2022/04/07 08:05:30;;;;;;;27.45;9.18;;;;;;;22.08;38.32;99371.59;1663583;84;20947;-59
2022/04/07 08:07:57;;;;;;;34.67;9.23;;;;;;;22.09;38.19;99370.43;1665876;85;22110;-59
2022/04/07 08:10:23;;;;;;;23.02;9.25;;;;;;;22.06;38.09;99358.70;1652116;85;21055;-59
2022/04/07 08:12:49;;;;;;;23.62;8.13;;;;;;;22.04;37.90;99356.05;1654527;85;21220;-59
2022/04/07 08:15:15;;;;;;;16.10;8.25;;;;;;;22.01;37.68;99344.33;1649057;85;21394;-59
2022/04/07 08:17:41;;;;;;;21.77;8.25;;;;;;;21.96;37.52;99339.87;1698972;83;20922;-59
2022/04/07 08:20:08;;;;;;;17.35;7.55;;;;;;;21.93;37.32;99333.68;1704463;82;22048;-59
2022/04/07 08:22:34;;;;;;;15.85;7.72;;;;;;;21.91;37.14;99325.46;1712984;83;21390;-59
2022/04/07 08:25:01;;;;;;;22.15;8.05;;;;;;;21.89;36.97;99320.30;1709099;83;21281;-59
2022/04/07 08:27:27;;;;;;;18.02;8.05;;;;;;;21.86;36.84;99316.28;1704267;83;20890;-58
2022/04/07 08:29:53;;;;;;;18.15;7.72;;;;;;;21.83;36.72;99312.05;1707144;83;21032;-59
2022/04/07 08:32:19;;;;;;;16.00;6.83;;;;;;;21.81;36.63;99309.63;1704551;83;21143;-59
2022/04/07 08:34:46;;;;;;;18.30;7.78;;;;;;;21.78;36.54;99306.21;1702149;83;21338;-58
2022/04/07 08:37:18;;;;;;;19.80;7.78;;;;;;;21.76;36.48;99301.63;1705014;83;21300;-58
2022/04/07 08:39:45;;;;;;;20.08;8.28;;;;;;;21.74;36.49;99303.95;1700711;82;21467;-62
2022/04/07 08:42:11;;;;;;;19.15;7.92;;;;;;;21.72;36.42;99309.06;1672287;84;21059;-61
2022/04/07 08:44:37;;;;;;;23.10;8.15;;;;;;;21.73;36.70;99308.45;1633397;85;21103;-62
2022/04/07 08:47:04;;;;;;;29.35;7.85;;;;;;;21.73;36.90;99302.33;1619346;86;21107;-62
2022/04/07 08:49:31;;;;;;;26.45;7.78;;;;;;;21.73;37.03;99282.95;1646717;86;22012;-60
2022/04/07 08:51:57;;;;;;;22.98;7.47;;;;;;;21.73;37.15;99277.42;1650445;85;21005;-63
2022/04/07 08:54:23;;;;;;;26.02;6.80;;;;;;;21.73;37.15;99280.77;1645935;85;21439;-62
2022/04/07 08:56:49;;;;;;;27.20;7.05;;;;;;;21.71;37.20;99277.00;1617136;88;21825;-64
2022/04/07 08:59:16;;;;;;;19.75;6.97;;;;;;;21.73;37.27;99261.39;1617063;88;21144;-63
2022/04/07 09:01:43;;;;;;;26.87;7.10;;;;;;;21.72;37.22;99259.81;1615174;87;21573;-64
2022/04/07 09:04:12;;;;;;;17.15;6.25;;;;;;;21.72;37.24;99259.81;1614915;88;21130;-61
2022/04/07 09:06:39;;;;;;;19.95;5.95;;;;;;;21.70;37.17;99251.05;1627856;86;20996;-62
2022/04/07 09:09:18;;;;;;;17.07;6.10;;;;;;;21.69;37.04;99243.91;1623417;87;20903;-62
2022/04/07 09:11:44;;;;;;;15.68;5.58;;;;;;;21.69;36.91;99246.67;1619274;88;20978;-62
2022/04/07 09:14:11;;;;;;;19.12;6.10;;;;;;;21.66;36.86;99237.14;1612687;88;21438;-62
2022/04/07 09:16:38;;;;;;;19.52;6.05;;;;;;;21.64;36.80;99232.53;1612592;88;21443;-63
2022/04/07 09:19:05;;;;;;;14.60;5.05;;;;;;;21.62;36.72;99236.26;1615761;88;20910;-60
2022/04/07 09:21:37;;;;;;;13.38;5.22;;;;;;;21.61;36.59;99233.27;1622498;88;20966;-61
2022/04/07 09:24:05;;;;;;;11.12;4.80;;;;;;;21.58;36.58;99217.39;1618558;88;21061;-62
2022/04/07 09:26:34;;;;;;;12.28;4.37;;;;;;;21.59;36.54;99227.88;1620496;88;21350;-61
2022/04/07 09:29:10;;;;;;;15.63;5.42;;;;;;;21.60;36.42;99218.42;1615738;88;21379;-62
2022/04/07 09:31:40;;;;;;;13.13;4.05;;;;;;;21.60;36.36;99216.44;1615098;88;21406;-61
2022/04/07 09:34:06;;;;;;;11.97;4.80;;;;;;;21.60;36.29;99211.50;1622310;87;20970;-60
2022/04/07 09:36:32;;;;;;;13.95;4.67;;;;;;;21.61;36.20;99213.89;1616975;86;21084;-60
2022/04/07 09:39:00;;;;;;;11.97;4.42;;;;;;;21.59;35.91;99212.66;1613922;87;21337;-59
2022/04/07 09:41:30;;;;;;;11.20;4.30;;;;;;;21.58;36.00;99213.24;1624773;87;21053;-61
2022/04/07 09:43:58;;;;;;;7.50;4.37;;;;;;;21.59;35.98;99207.94;1628213;86;20988;-60
2022/04/07 09:46:38;;;;;;;13.08;4.25;;;;;;;21.59;35.76;99197.44;1616914;88;21298;-60
2022/04/07 09:49:11;;;;;;;10.40;4.47;;;;;;;21.59;36.07;99194.09;1614173;87;21098;-59
2022/04/07 09:51:47;;;;;;;9.85;4.72;;;;;;;21.60;36.06;99190.14;1618886;88;22001;-59
2022/04/07 09:54:16;;;;;;;16.17;4.45;;;;;;;21.60;35.74;99190.75;1623163;87;20988;-60
2022/04/07 09:56:43;;;;;;;12.80;4.20;;;;;;;21.58;35.70;99184.19;1636215;86;21066;-62
2022/04/07 09:59:10;;;;;;;13.93;4.47;;;;;;;21.60;35.92;99183.22;1634620;86;21192;-61
2022/04/07 10:01:38;;;;;;;15.75;4.20;;;;;;;21.62;36.35;99178.14;1635418;85;21172;-59
2022/04/07 10:04:10;;;;;;;19.77;4.67;;;;;;;21.65;36.52;99185.70;1635994;85;21212;-60
2022/04/07 10:06:39;;;;;;;16.32;4.60;;;;;;;21.66;36.49;99174.06;1647873;84;21535;-61
2022/04/07 10:09:07;;;;;;;16.07;4.00;;;;;;;21.65;36.56;99173.25;1614406;85;21656;-61
2022/04/07 10:11:33;;;;;;;9.43;3.45;;;;;;;21.64;36.54;99166.72;1657726;84;21065;-59
2022/04/07 10:14:00;;;;;;;14.05;4.72;;;;;;;21.59;36.20;99170.58;1660830;84;21196;-61
2022/04/07 10:16:29;;;;;;;20.90;4.45;;;;;;;21.54;36.11;99161.75;1664730;85;21183;-60
2022/04/07 10:19:06;;;;;;;13.10;4.65;;;;;;;21.51;36.16;99160.52;1627605;86;21818;-59
2022/04/07 10:22:01;;;;;;;8.73;4.20;;;;;;;21.51;36.20;99151.41;1628165;87;20985;-62
2022/04/07 10:24:40;;;;;;;11.30;4.10;;;;;;;21.50;36.25;99151.99;1664746;85;20995;-59
2022/04/07 10:27:08;;;;;;;9.43;3.80;;;;;;;21.48;36.24;99141.86;1647434;85;22464;-59
2022/04/07 10:29:34;;;;;;;6.85;3.60;;;;;;;21.46;36.18;99137.28;1666413;85;21313;-58
2022/04/07 10:32:21;;;;;;;15.03;4.28;;;;;;;21.45;36.19;99138.44;1630980;86;21082;-57
2022/04/07 10:34:59;;;;;;;15.05;4.20;;;;;;;21.44;36.16;99132.68;1658058;84;22273;-60
2022/04/07 10:37:31;;;;;;;7.90;3.92;;;;;;;21.41;36.13;99129.27;1640086;87;21215;-60
2022/04/07 10:40:26;;;;;;;9.80;4.15;;;;;;;21.41;36.07;99129.27;1659051;85;21504;-60
2022/04/07 10:43:13;;;;;;;12.10;3.42;;;;;;;21.41;36.02;99127.30;1631321;85;21142;-61
2022/04/07 10:45:44;;;;;;;7.90;3.58;;;;;;;21.40;35.98;99118.78;1653226;84;22036;-61
2022/04/07 10:48:31;;;;;;;14.50;4.67;;;;;;;21.37;35.98;99116.75;1647099;86;22076;-59
2022/04/07 10:51:02;;;;;;;15.80;4.33;;;;;;;21.37;35.98;99116.75;1655603;85;21409;-60
2022/04/07 10:53:54;;;;;;;11.63;3.77;;;;;;;21.33;35.78;99110.34;1642103;85;21061;-61
2022/04/07 10:56:39;;;;;;;16.82;4.40;;;;;;;21.34;36.37;99113.91;1622349;86;21162;-61
2022/04/07 10:59:20;;;;;;;15.80;4.10;;;;;;;21.36;36.36;99104.07;1618186;86;20994;-62
2022/04/07 11:02:10;;;;;;;13.20;4.00;;;;;;;21.35;36.24;99103.04;1624301;87;21490;-62
2022/04/07 11:04:46;;;;;;;14.15;4.40;;;;;;;21.35;36.12;99098.89;1627393;87;21417;-61
2022/04/07 11:07:13;;;;;;;18.92;3.80;;;;;;;21.34;36.05;99097.31;1624995;87;20992;-61
2022/04/07 11:10:11;;;;;;;24.87;4.67;;;;;;;21.33;35.98;99097.09;1622142;86;21106;-60
2022/04/07 11:12:39;;;;;;;13.03;3.62;;;;;;;21.33;36.02;99095.70;1618661;86;20986;-62
2022/04/07 11:15:14;;;;;;;13.05;5.15;;;;;;;21.29;35.99;99092.87;1624330;87;20923;-59
2022/04/07 11:17:47;;;;;;;15.60;5.08;;;;;;;21.29;36.01;99093.45;1624842;88;20954;-62
2022/04/07 11:20:21;;;;;;;17.45;4.50;;;;;;;21.28;36.07;99100.13;1633631;86;20944;-63
2022/04/07 11:23:09;;;;;;;22.15;4.67;;;;;;;21.27;36.13;99121.45;1629994;86;21177;-61
2022/04/07 11:25:44;;;;;;;12.28;4.20;;;;;;;21.25;36.17;99127.95;1628936;87;20936;-61
2022/04/07 11:28:19;;;;;;;19.55;4.17;;;;;;;21.24;36.25;99137.98;1619274;87;20916;-62
2022/04/07 11:30:52;;;;;;;19.25;4.30;;;;;;;21.23;36.35;99144.09;1615639;88;21058;-63
2022/04/07 11:33:27;;;;;;;16.20;4.17;;;;;;;21.23;36.40;99146.05;1611247;86;20973;-63
2022/04/07 11:36:05;;;;;;;16.57;4.22;;;;;;;21.22;36.44;99143.06;1632316;86;21035;-61
2022/04/07 11:38:43;;;;;;;17.30;3.92;;;;;;;21.20;36.52;99148.97;1612765;88;21000;-62
2022/04/07 11:41:14;;;;;;;16.95;4.78;;;;;;;21.20;36.72;99146.20;1606155;87;20925;-58
2022/04/07 11:43:48;;;;;;;9.28;3.83;;;;;;;21.19;36.82;99143.79;1643248;86;20968;-59
2022/04/07 11:46:27;;;;;;;13.28;3.87;;;;;;;21.18;36.94;99145.75;1660185;85;20949;-61
2022/04/07 11:49:01;;;;;;;10.60;4.37;;;;;;;21.18;36.95;99149.09;1634128;85;21362;-62
2022/04/07 11:51:28;;;;;;;10.25;4.00;;;;;;;21.18;37.01;99149.09;1629763;87;20903;-60
2022/04/07 11:53:55;;;;;;;16.42;4.90;;;;;;;21.14;37.08;99159.28;1632278;86;21081;-60
2022/04/07 11:56:27;;;;;;;9.63;5.08;;;;;;;21.07;37.63;99159.90;1656747;84;21134;-62
2022/04/07 11:59:07;;;;;;;20.23;5.92;;;;;;;20.94;38.00;99156.44;1659174;86;20929;-59
2022/04/07 12:01:38;;;;;;;20.10;6.27;;;;;;;20.80;38.57;99161.63;1659049;86;21567;-62
2022/04/07 12:04:06;;;;;;;10.53;4.25;;;;;;;20.68;38.88;99161.73;1644355;87;20905;-62
2022/04/07 12:06:35;;;;;;;11.43;5.70;;;;;;;20.68;39.38;99163.11;1667263;85;20919;-62
2022/04/07 12:09:02;;;;;;;16.75;5.12;;;;;;;20.71;39.59;99156.08;1663370;85;21352;-61
2022/04/07 12:11:30;;;;;;;10.75;4.87;;;;;;;20.70;39.93;99155.86;1626805;86;22197;-58
2022/04/07 12:13:57;;;;;;;13.95;4.62;;;;;;;20.73;40.02;99161.46;1651400;85;21136;-58
2022/04/07 12:16:25;;;;;;;14.70;4.80;;;;;;;20.77;39.96;99154.63;1662816;85;21058;-60
2022/04/07 12:19:03;;;;;;;11.15;4.80;;;;;;;20.79;40.06;99159.23;1670602;84;21384;-60
2022/04/07 12:21:29;;;;;;;21.77;5.92;;;;;;;20.80;40.22;99156.09;1675135;84;21067;-60
2022/04/07 12:24:13;;;;;;;9.08;4.42;;;;;;;20.83;40.51;99149.88;1662988;84;21518;-59
2022/04/07 12:26:43;;;;;;;13.98;5.90;;;;;;;20.88;40.71;99150.95;1659328;84;21101;-58
2022/04/07 12:29:22;;;;;;;10.80;5.58;;;;;;;20.90;40.76;99153.38;1635421;86;21172;-57
2022/04/07 12:32:07;;;;;;;17.57;6.70;;;;;;;20.92;40.74;99151.84;1658225;85;21385;-58
2022/04/07 12:34:38;;;;;;;18.70;7.85;;;;;;;20.93;40.76;99159.55;1639640;86;20992;-58
2022/04/07 12:37:04;;;;;;;11.25;6.05;;;;;;;20.94;40.84;99152.88;1625949;87;21058;-57
2022/04/07 12:39:35;;;;;;;17.15;9.05;;;;;;;20.92;40.90;99156.56;1600399;87;21055;-59
2022/04/07 12:42:05;;;;;;;;;;;;;;;20.84;41.16;99151.45;1630471;87;21050;-58
2022/04/07 12:44:35;;;;;;;13.48;6.17;;;;;;;20.75;41.55;99154.20;1655918;85;20172;-59
2022/04/07 12:47:05;;;;;;;10.60;5.90;;;;;;;20.62;41.54;99144.41;1642684;86;21177;-59
2022/04/07 12:49:33;;;;;;;19.12;6.65;;;;;;;20.59;41.49;99143.14;1611459;87;21731;-59
2022/04/07 12:52:13;;;;;;;17.40;5.60;;;;;;;20.60;41.57;99140.61;1661516;84;22255;-60
2022/04/07 12:54:58;;;;;;;11.83;5.17;;;;;;;20.62;42.05;99140.27;1646229;86;20980;-59
2022/04/07 12:57:38;;;;;;;16.85;5.53;;;;;;;20.66;42.67;99142.53;1644789;85;21417;-59
2022/04/07 13:00:10;;;;;;;19.35;4.92;;;;;;;20.68;43.03;99139.62;1641248;86;22095;-59
2022/04/07 13:02:49;;;;;;;14.33;4.40;;;;;;;20.68;43.23;99143.77;1674123;84;21111;-63
2022/04/07 13:05:28;;;;;;;20.37;4.95;;;;;;;20.69;43.86;99135.70;1585415;85;21183;-63
2022/04/07 13:07:58;;;;;;;12.88;5.08;;;;;;;20.69;43.98;99127.41;1668527;84;21434;-64
2022/04/07 13:10:25;;;;;;;15.70;5.17;;;;;;;20.71;44.02;99130.61;1658674;84;21045;-63
2022/04/07 13:12:52;;;;;;;14.70;6.12;;;;;;;20.74;44.05;99134.05;1648911;85;20902;-63
2022/04/07 13:15:18;;;;;;;17.32;5.72;;;;;;;20.76;43.99;99124.80;1668603;84;21061;-63
2022/04/07 13:17:44;;;;;;;12.82;4.87;;;;;;;20.78;43.88;99132.17;1633718;87;21773;-63
2022/04/07 13:20:10;;;;;;;24.87;5.25;;;;;;;20.79;43.81;99130.22;1628649;86;21090;-63
2022/04/07 13:22:36;;;;;;;12.78;5.22;;;;;;;20.80;43.75;99124.89;1607080;89;21054;-59
2022/04/07 13:25:05;;;;;;;20.85;5.35;;;;;;;20.82;43.80;99123.38;1634354;87;22113;-57
2022/04/07 13:27:31;;;;;;;14.40;5.40;;;;;;;20.82;43.79;99118.44;1669920;85;22038;-57
2022/04/07 13:29:58;;;;;;;16.55;5.08;;;;;;;20.85;44.00;99119.89;1668166;84;22411;-57
2022/04/07 13:32:24;;;;;;;13.22;5.22;;;;;;;20.88;44.18;99118.36;1671189;85;21026;-57
2022/04/07 13:34:51;;;;;;;15.58;4.67;;;;;;;20.90;44.20;99119.63;1663533;84;21539;-58
2022/04/07 13:37:18;;;;;;;15.00;4.97;;;;;;;20.93;44.37;99116.13;1674922;84;20937;-60
2022/04/07 13:39:44;;;;;;;14.30;5.22;;;;;;;20.97;44.51;99121.73;1661837;85;20954;-60
2022/04/07 13:42:11;;;;;;;15.13;5.55;;;;;;;21.00;44.51;99121.61;1658907;86;21002;-59
2022/04/07 13:44:37;;;;;;;15.25;6.22;;;;;;;21.03;44.55;99120.88;1638729;86;21076;-59
2022/04/07 13:47:04;;;;;;;10.03;5.92;;;;;;;21.04;44.52;99120.53;1687905;84;20966;-59
2022/04/07 13:49:36;;;;;;;19.85;6.70;;;;;;;21.06;44.62;99109.90;1673110;84;21000;-59
2022/04/07 13:52:04;;;;;;;20.52;6.83;;;;;;;21.07;44.66;99109.32;1634340;87;21076;-59
2022/04/07 13:54:30;;;;;;;21.45;7.08;;;;;;;21.03;44.82;99108.44;1658361;86;21200;-60
2022/04/07 13:56:56;;;;;;;19.23;6.47;;;;;;;21.01;45.00;99106.61;1653560;85;21040;-60
2022/04/07 13:59:22;;;;;;;20.23;6.28;;;;;;;20.99;45.17;99100.08;1658672;86;21321;-60
2022/04/07 14:01:50;;;;;;;15.83;6.25;;;;;;;20.95;45.19;99092.28;1636185;86;21446;-60
2022/04/07 14:04:16;;;;;;;15.15;6.00;;;;;;;20.91;45.32;99081.15;1633094;87;21077;-59
2022/04/07 14:06:42;;;;;;;13.68;5.95;;;;;;;20.88;45.33;99083.23;1641188;86;21567;-59
2022/04/07 14:09:12;;;;;;;21.02;5.60;;;;;;;20.86;45.39;99076.47;1635867;86;20953;-60
2022/04/07 14:11:37;;;;;;;16.95;5.50;;;;;;;20.86;45.41;99075.09;1650866;86;20996;-59
2022/04/07 14:14:04;;;;;;;22.13;5.37;;;;;;;20.85;45.43;99076.25;1645178;85;20988;-60
2022/04/07 14:16:30;;;;;;;13.30;5.53;;;;;;;20.86;45.38;99080.62;1643998;86;21037;-60
2022/04/07 14:18:56;;;;;;;14.43;5.67;;;;;;;20.87;45.44;99076.13;1645503;86;21280;-57
2022/04/07 14:21:23;;;;;;;14.55;6.12;;;;;;;20.89;45.37;99081.27;1630884;87;21101;-57
2022/04/07 14:23:54;;;;;;;16.70;5.95;;;;;;;20.90;45.33;99081.50;1650859;86;21058;-60
2022/04/07 14:26:17;;;;;;;17.98;5.83;;;;;;;20.89;45.26;99073.78;1632179;87;20999;-60
2022/04/07 14:28:43;;;;;;;19.62;5.75;;;;;;;20.90;45.25;99071.25;1648400;86;21439;-60
2022/04/07 14:31:09;;;;;;;15.18;5.50;;;;;;;20.90;45.23;99070.44;1635536;87;21142;-61
2022/04/07 14:33:36;;;;;;;15.58;5.83;;;;;;;20.90;45.20;99070.44;1632478;87;20954;-60
2022/04/07 14:36:03;;;;;;;16.37;5.90;;;;;;;20.88;45.24;99063.08;1634739;87;21095;-60
2022/04/07 14:38:29;;;;;;;15.43;5.72;;;;;;;20.88;45.19;99057.55;1634895;87;21096;-60
2022/04/07 14:40:55;;;;;;;13.80;5.28;;;;;;;20.88;45.12;99061.12;1634945;87;20925;-59
2022/04/07 14:43:22;;;;;;;19.75;5.42;;;;;;;20.89;45.16;99054.43;1635010;87;21920;-59
2022/04/07 14:45:50;;;;;;;13.40;5.45;;;;;;;20.89;45.19;99048.91;1631734;87;20984;-59
2022/04/07 14:48:22;;;;;;;17.20;6.00;;;;;;;20.90;45.25;99045.56;1627044;87;21479;-59
2022/04/07 14:50:48;;;;;;;16.35;6.10;;;;;;;20.90;45.17;99048.33;1655624;86;21534;-59
2022/04/07 14:53:14;;;;;;;14.45;6.53;;;;;;;20.88;45.23;99051.44;1656584;86;21512;-59
2022/04/07 14:55:40;;;;;;;17.35;6.20;;;;;;;20.86;45.45;99048.25;1633197;87;21301;-59
2022/04/07 14:58:12;;;;;;;15.23;5.92;;;;;;;20.88;45.73;99050.06;1658305;85;20969;-59
2022/04/07 15:00:37;;;;;;;15.58;6.08;;;;;;;20.89;45.80;99043.95;1640016;87;20996;-59
2022/04/07 15:03:04;;;;;;;23.85;6.20;;;;;;;20.89;45.87;99041.19;1658973;86;21388;-59
2022/04/07 15:05:30;;;;;;;16.87;5.87;;;;;;;20.91;46.02;99054.89;1659005;85;21022;-59
2022/04/07 15:07:58;;;;;;;18.32;6.58;;;;;;;20.93;46.10;99051.74;1659082;86;21399;-59
2022/04/07 15:10:24;;;;;;;21.17;6.80;;;;;;;20.95;46.10;99045.28;1659110;86;21043;-59
2022/04/07 15:12:50;;;;;;;20.02;6.67;;;;;;;20.97;46.11;99049.85;1658907;86;20938;-59
2022/04/07 15:15:16;;;;;;;17.25;5.53;;;;;;;20.97;46.15;99042.36;1658685;86;20978;-59
2022/04/07 15:17:42;;;;;;;17.07;5.90;;;;;;;21.01;46.13;99049.92;1641666;87;21021;-59
2022/04/07 15:20:10;;;;;;;11.63;6.10;;;;;;;21.01;46.13;99049.34;1658960;85;21341;-59
2022/04/07 15:22:36;;;;;;;16.40;5.80;;;;;;;21.02;46.13;99052.91;1659170;85;20989;-59
2022/04/07 15:25:04;;;;;;;19.73;6.42;;;;;;;21.02;46.06;99045.42;1658965;86;21338;-60
2022/04/07 15:27:30;;;;;;;18.20;6.22;;;;;;;21.03;46.05;99042.89;1658875;86;20957;-59
2022/04/07 15:29:56;;;;;;;15.00;6.10;;;;;;;21.04;46.00;99041.73;1660590;85;21688;-59
2022/04/07 15:32:27;;;;;;;13.20;5.83;;;;;;;21.04;45.98;99039.55;1676449;84;21096;-59
2022/04/07 15:34:53;;;;;;;20.70;6.35;;;;;;;21.04;45.94;99026.52;1664787;84;20972;-59
2022/04/07 15:37:21;;;;;;;15.48;5.75;;;;;;;21.05;45.91;99031.48;1662907;85;20988;-59
2022/04/07 15:39:48;;;;;;;17.17;5.92;;;;;;;21.04;45.82;99032.05;1643641;87;21443;-59
2022/04/07 15:42:14;;;;;;;18.32;5.97;;;;;;;21.03;45.85;99034.59;1643261;87;21064;-59
2022/04/07 15:44:40;;;;;;;10.93;5.25;;;;;;;21.03;45.78;99033.21;1665265;84;23364;-60
2022/04/07 15:47:07;;;;;;;11.57;5.95;;;;;;;21.03;45.74;99025.49;1666443;84;21013;-60
2022/04/07 15:49:33;;;;;;;17.12;5.53;;;;;;;21.03;45.77;99025.49;1645499;86;20976;-60
2022/04/07 15:51:59;;;;;;;11.90;5.37;;;;;;;21.01;45.78;99027.23;1638045;86;21122;-60
2022/04/07 15:54:25;;;;;;;12.70;6.12;;;;;;;21.03;45.84;99027.68;1636165;87;21336;-60
2022/04/07 15:56:51;;;;;;;12.03;5.80;;;;;;;21.02;45.88;99035.75;1657880;86;21362;-60
2022/04/07 15:59:17;;;;;;;14.13;5.62;;;;;;;21.02;45.81;99029.41;1634344;86;20921;-60
2022/04/07 16:01:43;;;;;;;14.10;5.60;;;;;;;21.01;45.83;99033.34;1617155;88;21547;-57
2022/04/07 16:04:09;;;;;;;8.65;5.53;;;;;;;21.00;45.74;99031.18;1633567;87;20901;-57
2022/04/07 16:06:35;;;;;;;11.50;5.60;;;;;;;20.97;45.70;99024.97;1617960;88;21549;-57
2022/04/07 16:09:01;;;;;;;12.75;6.03;;;;;;;20.98;45.70;99027.97;1633567;87;21658;-58
2022/04/07 16:11:27;;;;;;;13.05;6.55;;;;;;;20.98;45.80;99023.23;1616973;88;21064;-58
2022/04/07 16:13:54;;;;;;;15.85;6.25;;;;;;;20.97;45.77;99011.95;1633604;87;21384;-58
2022/04/07 16:16:20;;;;;;;13.35;6.28;;;;;;;20.97;45.75;99017.48;1617722;88;21008;-57
2022/04/07 16:18:46;;;;;;;12.58;5.95;;;;;;;20.96;45.69;99010.34;1634055;87;21020;-57
2022/04/07 16:21:12;;;;;;;12.80;5.75;;;;;;;20.96;45.69;99000.67;1617463;88;21409;-57
2022/04/07 16:23:38;;;;;;;12.98;6.30;;;;;;;20.96;45.64;99006.20;1633890;87;20932;-57
2022/04/07 16:26:05;;;;;;;8.85;5.45;;;;;;;20.96;45.62;98999.89;1637087;86;21442;-57
2022/04/07 16:28:32;;;;;;;12.03;5.75;;;;;;;20.95;45.62;98998.29;1630494;87;20960;-57
2022/04/07 16:31:00;;;;;;;10.65;5.72;;;;;;;20.96;45.64;98997.13;1633067;87;21028;-57
2022/04/07 16:33:27;;;;;;;12.78;5.80;;;;;;;20.96;45.63;98986.07;1645965;86;21736;-57
2022/04/07 16:35:54;;;;;;;14.03;6.10;;;;;;;20.94;45.57;98991.95;1605647;89;21014;-57
2022/04/07 16:38:21;;;;;;;10.45;5.33;;;;;;;20.92;45.54;98994.84;1615244;88;21010;-57
2022/04/07 16:40:47;;;;;;;9.60;5.42;;;;;;;20.89;45.55;98996.38;1632525;87;21166;-57
2022/04/07 16:43:13;;;;;;;10.98;6.10;;;;;;;20.89;45.54;98997.77;1616933;88;21087;-57
2022/04/07 16:45:39;;;;;;;11.68;5.62;;;;;;;20.90;45.48;99000.75;1631900;87;21294;-57
2022/04/07 16:48:06;;;;;;;10.00;5.53;;;;;;;20.90;45.47;99002.14;1616055;88;20957;-57
2022/04/07 16:50:32;;;;;;;14.95;5.70;;;;;;;20.90;45.41;98998.57;1616144;88;21466;-57
2022/04/07 16:53:05;;;;;;;15.05;6.25;;;;;;;20.89;45.40;98998.34;1615768;88;21448;-57
2022/04/07 16:55:30;;;;;;;14.75;5.87;;;;;;;20.89;45.41;98995.58;1616298;88;21601;-57
2022/04/07 16:57:57;;;;;;;11.35;6.20;;;;;;;20.89;45.39;98996.96;1630211;87;21123;-57
2022/04/07 17:00:23;;;;;;;12.35;5.55;;;;;;;20.90;45.34;98990.28;1640068;86;21358;-57
2022/04/07 17:02:50;;;;;;;11.18;5.83;;;;;;;20.90;45.32;98991.08;1639848;87;20937;-57
2022/04/07 17:05:16;;;;;;;10.20;6.22;;;;;;;20.90;45.29;98989.70;1640584;87;20918;-57
2022/04/07 17:07:42;;;;;;;12.47;5.80;;;;;;;20.90;45.24;98984.75;1640820;86;21394;-57
2022/04/07 17:10:09;;;;;;;10.70;5.97;;;;;;;20.90;45.20;98989.70;1640882;86;21176;-57
2022/04/07 17:12:35;;;;;;;11.60;5.95;;;;;;;20.90;45.15;98984.17;1639895;86;20937;-57
2022/04/07 17:15:01;;;;;;;9.38;5.83;;;;;;;20.90;45.12;98987.52;1640254;87;20953;-57
2022/04/07 17:17:28;;;;;;;9.53;5.80;;;;;;;20.90;45.10;98985.55;1640144;86;21104;-60
2022/04/07 17:19:55;;;;;;;8.25;5.60;;;;;;;20.90;45.10;98984.75;1640351;86;21004;-59
2022/04/07 17:22:21;;;;;;;11.55;5.70;;;;;;;20.89;45.05;98987.28;1640823;87;21243;-59
2022/04/07 17:24:48;;;;;;;9.38;5.70;;;;;;;20.89;45.02;98986.70;1640709;86;20937;-59
2022/04/07 17:27:14;;;;;;;10.40;5.62;;;;;;;20.89;44.96;98984.52;1640993;87;20993;-59
2022/04/07 17:29:40;;;;;;;12.82;5.72;;;;;;;20.89;44.95;98983.14;1640224;87;21052;-59
2022/04/07 17:32:13;;;;;;;11.40;5.50;;;;;;;20.88;44.92;98987.06;1627032;87;20908;-59
2022/04/07 17:34:39;;;;;;;8.95;5.33;;;;;;;20.88;44.89;98990.62;1627175;88;21141;-59
2022/04/07 17:37:10;;;;;;;11.08;5.70;;;;;;;20.87;44.80;98987.67;1602853;88;21029;-59
2022/04/07 17:39:34;;;;;;;9.90;5.20;;;;;;;20.88;44.78;98998.12;1630023;87;20985;-60
2022/04/07 17:42:07;;;;;;;10.03;5.80;;;;;;;20.86;44.72;98994.35;1625166;88;20995;-59
2022/04/07 17:44:34;;;;;;;9.50;5.45;;;;;;;20.86;44.71;98997.12;1625691;87;21007;-59
2022/04/07 17:47:00;;;;;;;13.22;6.30;;;;;;;20.85;44.65;99003.80;1625171;87;21263;-59
2022/04/07 17:49:26;;;;;;;10.00;5.65;;;;;;;20.85;44.63;99012.09;1625363;87;20935;-59
2022/04/07 17:51:52;;;;;;;11.20;6.03;;;;;;;20.84;44.58;99012.44;1625515;88;21070;-59
2022/04/07 17:54:18;;;;;;;8.53;5.40;;;;;;;20.85;44.53;99007.14;1625319;87;20932;-60
2022/04/07 17:56:44;;;;;;;7.58;5.50;;;;;;;20.84;44.52;99012.44;1625241;88;20983;-59
2022/04/07 17:59:10;;;;;;;12.23;5.62;;;;;;;20.84;44.48;99016.59;1655021;86;20991;-59
2022/04/07 18:01:37;;;;;;;12.15;6.05;;;;;;;20.83;44.41;99018.58;1656823;86;20951;-59
2022/04/07 18:04:03;;;;;;;9.25;5.87;;;;;;;20.84;44.40;99018.78;1657040;86;20994;-59
2022/04/07 18:06:29;;;;;;;8.90;5.60;;;;;;;20.83;44.36;99024.69;1657082;86;20927;-59
2022/04/07 18:08:55;;;;;;;8.88;5.25;;;;;;;20.83;44.31;99025.48;1656882;86;21477;-60
2022/04/07 18:11:21;;;;;;;7.42;5.35;;;;;;;20.82;44.27;99034.94;1657079;86;21120;-59
2022/04/07 18:13:47;;;;;;;7.35;5.97;;;;;;;20.82;44.25;99036.90;1657147;86;20988;-59
2022/04/07 18:16:14;;;;;;;9.18;5.70;;;;;;;20.82;44.21;99045.19;1656891;86;20943;-59
2022/04/07 18:18:40;;;;;;;9.90;5.65;;;;;;;20.82;44.18;99043.81;1656715;86;20934;-59
2022/04/07 18:21:06;;;;;;;9.08;5.22;;;;;;;20.81;44.15;99043.58;1657009;86;20959;-59
2022/04/07 18:23:32;;;;;;;9.73;5.72;;;;;;;20.81;44.11;99043.00;1656595;86;21348;-60
2022/04/07 18:26:01;;;;;;;6.90;5.60;;;;;;;20.81;44.05;99044.38;1657133;86;21454;-59
2022/04/07 18:28:32;;;;;;;9.68;5.90;;;;;;;20.81;44.01;99041.62;1656845;86;20944;-60
2022/04/07 18:30:58;;;;;;;10.10;5.40;;;;;;;20.81;43.98;99051.88;1648406;86;21104;-60
2022/04/07 18:33:24;;;;;;;9.03;5.42;;;;;;;20.80;43.93;99046.92;1643179;86;21060;-59
2022/04/07 18:35:52;;;;;;;9.40;5.45;;;;;;;20.81;43.90;99042.20;1643180;87;21779;-59
2022/04/07 18:38:18;;;;;;;7.55;5.15;;;;;;;20.79;43.84;99048.08;1642811;87;20985;-59
2022/04/07 18:40:50;;;;;;;8.88;5.90;;;;;;;20.81;43.80;99050.48;1643026;87;21029;-59
2022/04/07 18:43:16;;;;;;;7.85;6.03;;;;;;;20.79;43.75;99042.55;1643237;87;20965;-59
2022/04/07 18:45:42;;;;;;;8.65;5.33;;;;;;;20.79;43.73;99050.84;1642629;87;21540;-59
2022/04/07 18:48:08;;;;;;;9.48;5.87;;;;;;;20.79;43.67;99052.22;1643218;87;21165;-59
2022/04/07 18:50:35;;;;;;;9.25;5.72;;;;;;;20.79;43.66;99055.59;1642847;87;21527;-59
2022/04/07 18:53:01;;;;;;;10.65;5.58;;;;;;;20.78;43.65;99052.60;1642807;87;21547;-60
2022/04/07 18:55:28;;;;;;;8.85;5.33;;;;;;;20.78;43.60;99049.84;1643069;87;21081;-59
2022/04/07 18:57:55;;;;;;;7.40;5.03;;;;;;;20.78;43.58;99055.36;1642269;87;21065;-60
2022/04/07 19:00:21;;;;;;;7.15;5.17;;;;;;;20.77;43.54;99057.33;1640096;87;21904;-59
2022/04/07 19:02:53;;;;;;;7.37;5.60;;;;;;;20.77;43.48;99056.52;1640185;87;21002;-59
2022/04/07 19:05:19;;;;;;;6.92;5.22;;;;;;;20.76;43.46;99055.72;1640017;87;20989;-59
2022/04/07 19:07:45;;;;;;;8.35;5.83;;;;;;;20.76;43.45;99051.57;1640019;87;20994;-60
2022/04/07 19:10:11;;;;;;;8.13;5.78;;;;;;;20.76;43.42;99054.33;1640127;87;21412;-59
2022/04/07 19:12:43;;;;;;;7.72;6.05;;;;;;;20.76;43.40;99059.86;1640332;87;21075;-59
2022/04/07 19:15:10;;;;;;;7.67;5.15;;;;;;;20.76;43.33;99068.16;1639702;87;20973;-60